MMDO/DGO METAR and TAF weather

Enter ICAO airport designator
Station Type Date Time Source
MMDO METAR 2020/01/27 10:57 UTC NOAA

MMDO 271057Z RTD 00000KT 7SM FEW200 00/00 A3024 RMK 8/001 RTS


Station Type Date Time Source
MMDO Decoded METAR 2020/01/27 10:57 UTC NOAA

Durango Airport, Mexico (MMDO) 24-08N 104-32W
Jan 27, 2020 - 05:57 AM EST / 2020.01.27 1057 UTC
Wind: Calm:0
Visibility: 7 mile(s):0
Sky conditions: mostly clear
Temperature: 32 F (0 C)
Dew Point: 32 F (0 C)
Relative Humidity: 100%
Pressure (altimeter): 30.24 in. Hg (1024 hPa)
ob: MMDO 271057Z RTD 00000KT 7SM FEW200 00/00 A3024 RMK 8/001 RTS
cycle: 11

Station Type Date Time Source
MMDO TAF 2020/01/27 06:33 UTC NOAA

TAF MMDO 270432Z 2706/2806 18005KT P6SM SCT030 SCT250
TEMPO 2711/2715 2SM BR HZ BKN015
FM271800 22015KT P6SM BKN020 BKN250
FM280500 20005KT P6SM SCT030 SCT250

Example: see airport list